This is the latest recevied weather packets stored in our database for station/object WP4PW. If no packets are shown the sender has not sent any weather packets the latest 10 day(s).
| Time | Temp. | Humidity | Pressure | Rain* | Wind** | Luminosity | Snow |
|---|---|---|---|---|---|---|---|
| 1778017391 | 29.44° C | 77% | 1020.5 hPa | 0 mm | - | 113 W/m² | - |
| 1778017088 | 28.89° C | 77% | 1020.4 hPa | 0 mm | - | 68 W/m² | - |
| 1778016786 | 28.89° C | 78% | 1020.4 hPa | 0 mm | - | 70 W/m² | - |
| 1778016481 | 29.44° C | 78% | 1020.2 hPa | 0 mm | - | 96 W/m² | - |
| 1778016179 | 29.44° C | 78% | 1020.2 hPa | 0 mm | - | 96 W/m² | - |
| 1778015875 | 30° C | 79% | 1020.3 hPa | 0 mm | - | 211 W/m² | - |
| 1778015573 | 30° C | 78% | 1020.2 hPa | 0 mm | - | 214 W/m² | - |
| 1778015269 | 31.11° C | 76% | 1020.2 hPa | 0 mm | - | 237 W/m² | - |
| 1778014966 | 30.56° C | 76% | 1020.2 hPa | 0 mm | - | 265 W/m² | - |
| 1778014663 | 30.56° C | 77% | 1020.3 hPa | 0 mm | - | 328 W/m² | - |
| 1778014362 | 30.56° C | 76% | 1020.2 hPa | 0 mm | - | 307 W/m² | - |
| 1778014058 | 30.56° C | 77% | 1020.3 hPa | 0 mm | - | 336 W/m² | - |
| 1778013756 | 30.56° C | 77% | 1020.3 hPa | 0 mm | - | 369 W/m² | - |
| 1778013453 | 30° C | 78% | 1020.4 hPa | 0 mm | - | 342 W/m² | - |
| 1778013150 | 30° C | 78% | 1020.3 hPa | 0 mm | - | 114 W/m² | - |
| 1778012845 | 30° C | 77% | 1020.4 hPa | 0 mm | - | 278 W/m² | - |
| 1778012542 | 30.56° C | 76% | 1020.3 hPa | 0 mm | - | 139 W/m² | - |
| 1778012238 | 31.67° C | 72% | 1020.4 hPa | 0 mm | - | 188 W/m² | - |
| 1778011936 | 31.11° C | 74% | 1020.3 hPa | 0 mm | - | 421 W/m² | - |
| 1778011634 | 30.56° C | 77% | 1020.3 hPa | 0 mm | - | 464 W/m² | - |
| 1778011331 | 30.56° C | 78% | 1020.4 hPa | 0 mm | - | 513 W/m² | - |
| 1778011026 | 31.11° C | 74% | 1020.4 hPa | 0 mm | - | 484 W/m² | - |
| 1778010724 | 30.56° C | 75% | 1020.4 hPa | 0 mm | - | 471 W/m² | - |
| 1778010421 | 30.56° C | 74% | 1020.5 hPa | 0 mm | - | 491 W/m² | - |
| 1778010117 | 30.56° C | 75% | 1020.5 hPa | 0 mm | - | 529 W/m² | - |
* Rain latest hour (hover to see other rain measurements)
** Current wind speed in m/s (hover to see current wind gust speed)